createdAt,value
2023-01-19T00:07:22.152Z,19.80
2023-01-19T00:17:24.777Z,19.23
2023-01-19T00:27:27.297Z,17.60
2023-01-19T00:37:29.927Z,19.53
2023-01-19T00:47:33.367Z,21.48
2023-01-19T00:57:36.297Z,18.73
2023-01-19T01:07:41.348Z,16.77
2023-01-19T01:17:53.094Z,7.30
2023-01-19T01:27:55.647Z,7.55
2023-01-19T01:37:59.181Z,6.80
2023-01-19T01:48:28.743Z,6.70
2023-01-19T01:58:33.092Z,6.43
2023-01-19T02:09:00.970Z,7.17
2023-01-19T02:19:07.182Z,5.57
2023-01-19T02:29:16.487Z,6.53
2023-01-19T02:39:22.479Z,8.38
2023-01-19T02:49:28.666Z,7.43
2023-01-19T02:59:56.076Z,6.73
2023-01-19T03:10:07.798Z,7.97
2023-01-19T03:20:14.070Z,8.30
2023-01-19T03:30:22.613Z,13.63
2023-01-19T03:40:29.572Z,7.60
2023-01-19T03:50:32.484Z,7.30
2023-01-19T04:00:36.885Z,5.67
2023-01-19T04:10:39.936Z,8.38
2023-01-19T04:20:42.585Z,6.57
2023-01-19T04:30:45.531Z,5.77
2023-01-19T04:40:49.014Z,5.03
2023-01-19T04:50:52.659Z,6.72
2023-01-19T05:00:55.307Z,6.70
2023-01-19T05:10:58.023Z,6.40
2023-01-19T05:21:02.166Z,7.20
2023-01-19T05:31:05.170Z,8.57
2023-01-19T05:41:07.727Z,8.33
2023-01-19T05:51:10.190Z,6.18
2023-01-19T06:01:12.701Z,9.50
2023-01-19T06:11:15.393Z,7.10
2023-01-19T06:21:17.959Z,6.00
2023-01-19T06:31:20.787Z,8.70
2023-01-19T06:41:23.320Z,7.33
2023-01-19T06:51:25.933Z,8.27
2023-01-19T07:01:28.498Z,8.50
2023-01-19T07:11:33.085Z,6.57
2023-01-19T07:21:36.131Z,9.03
2023-01-19T07:31:38.849Z,12.98
2023-01-19T07:41:41.754Z,6.87
2023-01-19T07:51:44.401Z,8.47
2023-01-19T08:01:46.981Z,10.17
2023-01-19T08:11:49.568Z,11.18
2023-01-19T08:21:52.130Z,9.47
2023-01-19T08:31:56.668Z,7.80
2023-01-19T08:42:00.844Z,9.55
2023-01-19T08:52:03.318Z,11.10
2023-01-19T09:02:06.089Z,11.03
2023-01-19T09:12:08.724Z,11.32
2023-01-19T09:22:11.804Z,9.93
2023-01-19T09:32:14.348Z,8.97
2023-01-19T09:42:35.553Z,6.50
2023-01-19T09:52:43.735Z,8.13
2023-01-19T10:02:53.117Z,8.77
2023-01-19T10:13:13.075Z,8.77
2023-01-19T10:23:59.036Z,9.57
2023-01-19T10:34:01.664Z,10.60
2023-01-19T10:44:05.505Z,9.40
2023-01-19T10:54:13.428Z,9.00
2023-01-19T11:04:28.962Z,8.27
2023-01-19T11:14:32.011Z,10.67
2023-01-19T11:24:37.659Z,7.77
2023-01-19T11:34:40.316Z,7.47
2023-01-19T11:44:48.947Z,8.50
2023-01-19T11:55:01.808Z,7.60
2023-01-19T12:05:11.349Z,10.30
2023-01-19T12:15:35.239Z,6.53
2023-01-19T12:26:15.292Z,9.67
2023-01-19T12:36:26.890Z,9.43
2023-01-19T12:46:31.075Z,9.77
2023-01-19T12:56:38.140Z,12.40
2023-01-19T13:06:49.636Z,9.77
2023-01-19T13:17:00.872Z,7.63
2023-01-19T13:27:04.923Z,8.57
2023-01-19T13:37:18.695Z,6.73
2023-01-19T13:47:25.239Z,7.38
2023-01-19T13:57:42.788Z,5.23
2023-01-19T14:07:45.555Z,8.63
2023-01-19T14:18:12.035Z,10.23
2023-01-19T14:28:39.514Z,20.70
2023-01-19T14:38:50.075Z,8.37
2023-01-19T14:49:01.440Z,10.20
2023-01-19T14:59:09.811Z,11.45
2023-01-19T15:09:13.706Z,11.87
2023-01-19T15:19:17.434Z,24.80
2023-01-19T15:29:24.319Z,10.43
2023-01-19T15:39:26.934Z,7.87
2023-01-19T15:49:30.981Z,6.63
2023-01-19T15:59:33.443Z,11.20
2023-01-19T16:09:36.113Z,10.52
2023-01-19T16:19:38.735Z,7.43
2023-01-19T16:29:41.661Z,10.27
2023-01-19T16:39:45.473Z,14.40
2023-01-19T16:49:48.081Z,17.10
2023-01-19T16:59:51.623Z,14.83
2023-01-19T17:09:54.360Z,12.40
2023-01-19T17:19:57.261Z,14.73
2023-01-19T17:30:00.296Z,17.17
2023-01-19T17:40:03.350Z,8.90
2023-01-19T17:50:06.388Z,12.48
2023-01-19T18:00:09.836Z,15.23
2023-01-19T18:10:16.272Z,24.90
2023-01-19T18:20:19.645Z,34.83
2023-01-19T18:30:22.563Z,29.67
2023-01-19T18:40:26.034Z,18.27
2023-01-19T18:50:29.149Z,18.05
2023-01-19T19:00:32.167Z,16.20
2023-01-19T19:10:35.439Z,27.63
2023-01-19T19:20:38.980Z,46.42
2023-01-19T19:30:41.949Z,24.42
2023-01-19T19:40:44.839Z,23.63
2023-01-19T19:50:47.860Z,114.07
2023-01-19T20:00:50.726Z,53.60
2023-01-19T20:10:53.280Z,40.60
2023-01-19T20:20:56.438Z,43.47
2023-01-19T20:31:19.254Z,52.72
2023-01-19T20:41:23.255Z,44.77
2023-01-19T20:51:26.942Z,27.73
2023-01-19T21:01:29.982Z,44.05
2023-01-19T21:11:33.319Z,31.25
2023-01-19T21:21:36.477Z,23.57
2023-01-19T21:31:42.532Z,13.00
2023-01-19T21:41:45.283Z,8.25
2023-01-19T21:51:49.129Z,11.40
2023-01-19T22:01:51.735Z,8.37
2023-01-19T22:11:54.249Z,8.43
2023-01-19T22:21:56.718Z,9.50
2023-01-19T22:31:59.180Z,8.63
2023-01-19T22:42:04.537Z,8.02
2023-01-19T22:52:07.040Z,5.22
2023-01-19T23:02:09.621Z,5.90
2023-01-19T23:12:12.097Z,8.03
2023-01-19T23:22:14.649Z,10.52
2023-01-19T23:32:17.104Z,7.93
2023-01-19T23:42:19.647Z,8.57
2023-01-19T23:52:22.082Z,6.70
